• Join FlightAware (Why Join?)
  • Login
  • US Flag 
11:06AM EDT


 

Airport Tracker/Info


-or-


 

Live Flight TrackerFlight Track Log ✈ SKW6472 ✈ 14-Jul-2013 ✈ KABQ - KLAX

Flight Track Log - Related Links

Times and Time Zones

All times are in EDT time to prevent confusion due to time zone crossing. See the SKW6472 flight status page for this flight to view local times or setup timezone preferences in your user account.

Time Position Orientation Groundspeed Altitude Reporting Facility
EDT Latitude Longitude Course Direction KTS MPH feet Rate Location/Type
06:22PM 35.0433 -106.5664 270° West 190 219 5,800  Level Albuquerque Center
06:23PM 35.0633 -106.5389 48° Northeast 192 221 6,800 1,320 Climbing Albuquerque Center
06:24PM 35.1117 -106.5872 321° Northwest 246 283 8,100 1,260 Climbing Albuquerque Center
06:25PM 35.0334 -107.0294 270° West  Level FlightAware Approximate
06:25PM 35.1753 -106.6689 314° West 267 307 9,400  Level Albuquerque Center
06:26PM 35.0333 -107.1726 270° West  Level FlightAware Approximate
06:26PM 35.1853 -106.7667 277° West 289 333 11,200  Level Albuquerque Center
06:27PM 35.0167 -107.3139 270° West  Level FlightAware Approximate
06:27PM 35.1767 -106.8686 264° West 304 350 12,800  Level Albuquerque Center
06:28PM 35.0167 -107.4571 270° West  Level FlightAware Approximate
06:28PM 35.1686 -106.9722 265° West 312 359 14,400  Level Albuquerque Center
06:29PM 35.1575 -107.0994 264° West 317 365 16,100 1,860 Climbing Albuquerque Center
06:30PM 35.1511 -107.2033 266° West 312 359 18,300 1,740 Climbing Albuquerque Center
06:31PM 35.1447 -107.3044 266° West 302 348 19,700 1,200 Climbing Albuquerque Center
06:32PM 35.1247 -107.4017 256° West 298 343 20,900 960 Climbing Albuquerque Center
06:33PM 35.0933 -107.5025 249° West 312 359 21,700 480 Climbing Albuquerque Center
06:34PM 35.0728 -107.6133 257° West 334 384 22,000 120 Climbing Albuquerque Center
06:35PM 35.0753 -107.7353 271° West 355 409 22,000 540 Level Albuquerque Center
06:36PM 35.0658 -107.8811 266° West 360 414 23,200 900 Climbing Albuquerque Center
06:37PM 35.0650 -107.9975 270° West 358 412 23,900 780 Climbing Albuquerque Center
06:38PM 35.0733 -108.1364 274° West 364 419 24,800 780 Climbing Albuquerque Center
06:39PM 35.0672 -108.2553 266° West 364 419 25,600 660 Climbing Albuquerque Center
06:40PM 35.0606 -108.3750 266° West 367 422 26,200 480 Climbing Albuquerque Center
06:41PM 35.0550 -108.5181 267° West 373 429 26,700 420 Climbing Albuquerque Center
06:43PM 35.0622 -108.6411 274° West 379 436 27,100 420 Climbing Albuquerque Center
06:44PM 35.0967 -108.7828 287° West 387 445 27,600 480 Climbing Albuquerque Center
06:45PM 35.1278 -108.9042 287° West 390 449 28,100 480 Climbing Albuquerque Center
06:46PM 35.1572 -109.0250 287° West 388 447 28,600 360 Climbing Albuquerque Center
06:47PM 35.1919 -109.1697 286° West 394 453 28,900 240 Climbing Albuquerque Center
06:48PM 35.2022 -109.2958 276° West 391 450 29,100 300 Climbing Albuquerque Center
06:49PM 35.1867 -109.4244 262° West 397 457 29,600 420 Climbing Albuquerque Center
06:50PM 35.1775 -109.5758 266° West 397 457 30,000 180 Climbing Albuquerque Center
06:51PM 35.1597 -109.7058 261° West 404 465 30,000  Level Albuquerque Center
06:52PM 35.1386 -109.8608 261° West 412 474 30,000  Level Albuquerque Center
06:53PM 35.1214 -109.9978 261° West 420 483 30,000  Level Albuquerque Center
06:54PM 35.1019 -110.1314 260° West 418 481 30,000 240 Level Albuquerque Center
06:55PM 35.0806 -110.2836 260° West 412 474 30,500 480 Climbing Albuquerque Center
06:56PM 35.0622 -110.4128 260° West 407 468 31,000 300 Climbing Albuquerque Center
06:57PM 35.0383 -110.5639 259° West 404 465 31,200 180 Climbing Albuquerque Center
06:58PM 35.0186 -110.6944 260° West 409 471 31,400 180 Climbing Albuquerque Center
06:59PM 34.9989 -110.8267 260° West 413 475 31,600 180 Climbing Albuquerque Center
07:00PM 34.9789 -110.9631 260° West 412 474 31,800 180 Climbing Albuquerque Center
07:01PM 34.9583 -111.1019 260° West 415 478 32,000 60 Climbing Albuquerque Center
07:02PM 34.9469 -111.2453 265° West 421 484 32,000  Level Albuquerque Center
07:03PM 34.9408 -111.4150 268° West 420 483 32,000  Level Albuquerque Center
07:04PM 34.9336 -111.5544 266° West 417 480 32,000  Level Albuquerque Center
07:05PM 34.9039 -111.6881 255° West 415 478 32,000  Level Albuquerque Center
07:06PM 34.8678 -111.8192 251° West 411 473 32,000  Level Albuquerque Center
07:07PM 34.8344 -111.9506 253° West 408 470 32,000  Level Albuquerque Center
07:08PM 34.8133 -112.0869 259° West 412 474 32,000  Level Albuquerque Center
07:09PM 34.7917 -112.2244 259° West 414 476 32,000  Level Albuquerque Center
07:10PM 34.7697 -112.3608 259° West 412 474 32,000  Level Albuquerque Center
07:11PM 34.7444 -112.5250 259° West 412 474 32,000  Level Albuquerque Center
07:12PM 34.7217 -112.6611 259° West 412 474 32,000  Level Albuquerque Center
07:13PM 34.7003 -112.7997 259° West 415 478 32,000  Level Albuquerque Center
07:14PM 34.6578 -112.9264 248° West 415 478 32,000  Level Albuquerque Center
07:15PM 34.5961 -113.0406 237° Southwest 407 468 32,000  Level Albuquerque Center
07:16PM 34.5331 -113.1539 236° Southwest 406 467 32,000  Level Albuquerque Center
07:17PM 34.4658 -113.2622 233° Southwest 406 467 32,000  Level Albuquerque Center
07:18PM 34.3856 -113.3881 232° Southwest 408 470 32,000  Level Albuquerque Center
07:19PM 34.3419 -113.5156 248° West 421 484 32,000  Level Albuquerque Center
07:20PM 34.3003 -113.6536 250° West 410 472 32,000  Level Albuquerque Center
07:22PM 34.2669 -113.8656 259° West 413 475 32,000  Level Los Angeles Center
07:23PM 34.2542 -114.0025 264° West 412 474 32,000  Level Los Angeles Center
07:24PM 34.2428 -114.1403 264° West 414 476 32,000  Level Los Angeles Center
07:25PM 34.2256 -114.3358 264° West 421 484 32,000 -240 Level Los Angeles Center
07:26PM 34.2131 -114.4806 264° West 435 501 31,500 -540 Descending Los Angeles Center
07:27PM 34.2000 -114.6303 264° West 447 514 30,900 -480 Descending Los Angeles Center
07:28PM 34.1861 -114.7808 264° West 452 520 30,600 -360 Descending Los Angeles Center
07:30PM 34.1739 -114.9325 264° West 454 522 30,100 -300 Descending Los Angeles Center
07:31PM 34.1542 -115.1419 264° West 450 518 30,000 -60 Descending Los Angeles Center
07:32PM 34.1325 -115.2892 260° West 448 516 30,000  Level Los Angeles Center
07:33PM 34.1108 -115.4347 260° West 445 512 30,000  Level Los Angeles Center
07:34PM 34.0917 -115.5825 261° West 447 514 30,000  Level Los Angeles Center
07:35PM 34.0772 -115.7303 263° West 447 514 30,000  Level Los Angeles Center
07:36PM 34.0653 -115.8808 265° West 451 519 30,000 -60 Level Los Angeles Center
07:37PM 34.0489 -116.0578 264° West 447 514 29,900 -960 Descending Los Angeles Center
07:38PM 34.0361 -116.2108 264° West 458 527 28,100 -1,860 Descending Los Angeles Center
07:39PM 34.0222 -116.3653 264° West 465 535 26,100 -1,920 Descending Los Angeles Center
07:40PM 34.0092 -116.5122 264° West 446 513 24,200 -1,860 Descending Los Angeles Center
07:41PM 33.9967 -116.6544 264° West 434 499 22,300 -1,860 Descending Los Angeles Center
07:42PM 33.9844 -116.7933 264° West 423 487 20,400 -2,040 Descending Los Angeles Center
07:43PM 33.9689 -116.9539 263° West 409 471 18,200 -1,440 Descending Los Angeles Center
07:45PM 33.9500 -117.1333 263° West 385 443 17,000 -840 Descending Southern California TRACON
07:46PM 33.9333 -117.2667 261° West 382 440 16,300 -1,140 Descending Southern California TRACON
07:47PM 33.9333 -117.4000 270° West 387 445 14,800 -1,620 Descending Southern California TRACON
07:48PM 33.9833 -117.5167 297° West 382 440 13,100 -1,500 Descending Southern California TRACON
07:49PM 34.0167 -117.6167 292° West 315 362 11,900 -1,380 Descending Southern California TRACON
07:50PM 34.0000 -117.7167 259° West 308 354 10,400 -1,500 Descending Southern California TRACON
07:51PM 34.0000 -117.8167 270° West 302 348 8,900 -1,500 Descending Southern California TRACON
07:52PM 33.9833 -117.9167 259° West 295 339 7,400 -1,440 Descending Southern California TRACON
07:53PM 33.9667 -118.0167 259° West 280 322 6,100 -1,440 Descending Southern California TRACON
07:54PM 33.9667 -118.1000 270° West 258 297 4,600 -1,380 Descending Southern California TRACON
07:55PM 33.9667 -118.1833 270° West 229 264 3,400 -1,200 Descending Southern California TRACON